Time;durP1;ratioP1;P1;durP2;ratioP2;P2;SDS_P1;SDS_P2;PMS_P1;PMS_P2;Temp;Humidity;BMP_temperature;BMP_pressure;BME280_temperature;BME280_humidity;BME280_pressure;Samples;Min_cycle;Max_cycle;Signal;HPM_P1;HPM_P2
2021/05/19 00:01:34;;;;;;;;;;;11.10;99.90;;;;;;10502050;28;19931;-61
2021/05/19 00:06:36;;;;;;;;;;;11.10;99.90;;;;;;10500731;28;19921;-60
2021/05/19 00:11:39;;;;;;;;;;;11.10;99.90;;;;;;10498148;28;19931;-60
2021/05/19 00:16:40;;;;;;;;;;;11.20;99.90;;;;;;10495963;28;20658;-60
2021/05/19 00:21:41;;;;;;;;;;;11.30;99.90;;;;;;10496393;28;19928;-61
2021/05/19 00:26:43;;;;;;;;;;;11.30;99.90;;;;;;10498536;28;19935;-61
2021/05/19 00:31:44;;;;;;;;;;;11.30;99.90;;;;;;10495084;28;19971;-61
2021/05/19 00:36:45;;;;;;;;;;;11.30;99.90;;;;;;10493674;28;20010;-59
2021/05/19 00:41:47;;;;;;;;;;;11.30;99.90;;;;;;10493652;28;20000;-60
2021/05/19 00:46:48;;;;;;;;;;;11.30;99.90;;;;;;10493839;28;19920;-61
2021/05/19 00:51:49;;;;;;;;;;;11.10;99.90;;;;;;10494456;28;20536;-61
2021/05/19 00:56:51;;;;;;;;;;;11.00;99.90;;;;;;10496819;28;19986;-60
2021/05/19 01:01:52;;;;;;;;;;;10.90;99.90;;;;;;10497435;28;20437;-60
2021/05/19 01:06:57;;;;;;;;;;;10.70;99.90;;;;;;10498017;28;20006;-61
2021/05/19 01:11:59;;;;;;;;;;;10.60;99.90;;;;;;10497900;28;19939;-60
2021/05/19 01:17:01;;;;;;;;;;;10.50;99.90;;;;;;10498061;28;20313;-61
2021/05/19 01:22:06;;;;;;;;;;;10.50;99.90;;;;;;10497611;28;20368;-61
2021/05/19 01:27:08;;;;;;;;;;;10.50;99.90;;;;;;10496731;28;20284;-61
2021/05/19 01:32:09;;;;;;;;;;;10.40;99.90;;;;;;10497204;28;19924;-61
2021/05/19 01:37:11;;;;;;;;;;;10.40;99.90;;;;;;10497052;28;19939;-60
2021/05/19 01:42:13;;;;;;;;;;;10.20;99.90;;;;;;10496646;28;20385;-60
2021/05/19 01:47:14;;;;;;;;;;;10.30;99.90;;;;;;10496650;28;19960;-61
2021/05/19 01:52:16;;;;;;;;;;;10.20;99.90;;;;;;10497832;28;19920;-61
2021/05/19 01:57:17;;;;;;;;;;;10.20;99.90;;;;;;10497477;28;19920;-60
2021/05/19 02:02:21;;;;;;;;;;;10.20;99.90;;;;;;10493709;28;19927;-60
2021/05/19 02:07:23;;;;;;;;;;;10.10;99.90;;;;;;10493618;28;19924;-60
2021/05/19 02:12:24;;;;;;;;;;;10.10;99.90;;;;;;10493384;28;20019;-61
2021/05/19 02:17:25;;;;;;;;;;;10.00;99.90;;;;;;10492183;28;19926;-61
2021/05/19 02:22:28;;;;;;;;;;;9.90;99.90;;;;;;10492700;28;19924;-60
2021/05/19 02:27:29;;;;;;;;;;;9.90;99.90;;;;;;10494847;28;19923;-61
2021/05/19 02:32:30;;;;;;;;;;;9.90;99.90;;;;;;10496228;28;19920;-60
2021/05/19 02:37:32;;;;;;;;;;;9.90;99.90;;;;;;10495896;28;20291;-61
2021/05/19 02:42:34;;;;;;;;;;;9.90;99.90;;;;;;10496315;28;20461;-60
2021/05/19 02:47:35;;;;;;;;;;;10.00;99.90;;;;;;10495928;28;20360;-60
2021/05/19 02:52:37;;;;;;;;;;;10.00;99.90;;;;;;10496048;28;19920;-61
2021/05/19 02:57:39;;;;;;;;;;;10.10;99.90;;;;;;10495360;28;20283;-60
2021/05/19 03:02:40;;;;;;;;;;;10.10;99.90;;;;;;10495336;28;19946;-61
2021/05/19 03:07:44;;;;;;;;;;;10.30;99.90;;;;;;10495301;28;19928;-60
2021/05/19 03:12:45;;;;;;;;;;;10.40;99.90;;;;;;10495344;28;19920;-60
2021/05/19 03:17:46;;;;;;;;;;;10.50;99.90;;;;;;10495014;28;19943;-60
2021/05/19 03:22:48;;;;;;;;;;;10.60;99.90;;;;;;10495776;28;19924;-61
2021/05/19 03:27:49;;;;;;;;;;;10.60;99.90;;;;;;10501454;28;19927;-60
2021/05/19 03:32:50;;;;;;;;;;;10.70;99.90;;;;;;10503969;28;19924;-61
2021/05/19 03:37:52;;;;;;;;;;;10.70;99.90;;;;;;10502669;28;20348;-60
2021/05/19 03:42:54;;;;;;;;;;;10.70;99.90;;;;;;10502716;28;19924;-60
2021/05/19 03:47:55;;;;;;;;;;;10.60;99.90;;;;;;10502224;28;19970;-61
2021/05/19 03:52:58;;;;;;;;;;;10.50;99.90;;;;;;10501879;28;20334;-61
2021/05/19 03:57:59;;;;;;;;;;;10.60;99.90;;;;;;10501819;28;19930;-61
2021/05/19 04:03:00;;;;;;;;;;;10.60;99.90;;;;;;10501164;28;20342;-60
2021/05/19 04:08:03;;;;;;;;;;;10.60;99.90;;;;;;10502163;28;19920;-61
2021/05/19 04:13:05;;;;;;;;;;;10.70;99.90;;;;;;10501330;28;20401;-61
2021/05/19 04:18:06;;;;;;;;;;;10.70;99.90;;;;;;10500488;28;19920;-61
2021/05/19 04:23:08;;;;;;;;;;;10.80;99.90;;;;;;10499889;28;19920;-62
2021/05/19 04:28:10;;;;;;;;;;;10.80;99.90;;;;;;10500138;28;19931;-61
2021/05/19 04:33:11;;;;;;;;;;;10.60;99.90;;;;;;10499394;28;19925;-61
2021/05/19 04:38:13;;;;;;;;;;;10.60;99.90;;;;;;10498417;28;20345;-61
2021/05/19 04:43:14;;;;;;;;;;;10.60;99.90;;;;;;10499121;28;19925;-61
2021/05/19 04:48:15;;;;;;;;;;;10.60;99.90;;;;;;10498816;28;20003;-61
2021/05/19 04:53:17;;;;;;;;;;;10.60;99.90;;;;;;10498592;28;19924;-62
2021/05/19 04:58:18;;;;;;;;;;;10.60;99.90;;;;;;10497921;28;20266;-61
2021/05/19 05:03:20;;;;;;;;;;;10.60;99.90;;;;;;10497457;28;20396;-61
2021/05/19 05:08:22;;;;;;;;;;;10.70;99.90;;;;;;10498313;28;19921;-61
2021/05/19 05:13:23;;;;;;;;;;;10.80;99.90;;;;;;10495821;28;19934;-63
2021/05/19 05:18:24;;;;;;;;;;;10.90;99.90;;;;;;10497814;28;19928;-61
2021/05/19 05:23:28;;;;;;;;;;;10.90;99.90;;;;;;10497977;28;19926;-62
2021/05/19 05:28:29;;;;;;;;;;;11.00;99.90;;;;;;10499112;28;20357;-61
2021/05/19 05:33:31;;;;;;;;;;;11.10;99.90;;;;;;10499027;28;19943;-62
2021/05/19 05:38:33;;;;;;;;;;;11.10;99.90;;;;;;10498166;28;20394;-61
2021/05/19 05:43:34;;;;;;;;;;;11.20;99.90;;;;;;10497935;28;20269;-63
2021/05/19 05:48:35;;;;;;;;;;;11.50;99.90;;;;;;10498276;28;19959;-61
2021/05/19 05:53:37;;;;;;;;;;;11.90;99.90;;;;;;10498017;28;19969;-62
2021/05/19 05:58:38;;;;;;;;;;;12.20;99.90;;;;;;10496916;28;19926;-60
2021/05/19 06:03:39;;;;;;;;;;;10.60;99.90;;;;;;10492961;28;19924;-60
2021/05/19 06:08:41;;;;;;;;;;;12.30;99.90;;;;;;10493644;28;19930;-61
2021/05/19 06:13:42;;;;;;;;;;;14.70;99.90;;;;;;10494085;28;19924;-60
2021/05/19 06:18:43;;;;;;;;;;;17.90;99.90;;;;;;10493615;28;19920;-60
2021/05/19 06:23:45;;;;;;;;;;;17.30;99.90;;;;;;10492731;28;19930;-61
2021/05/19 06:28:46;;;;;;;;;;;15.90;99.90;;;;;;10493132;28;19934;-60
2021/05/19 06:33:47;;;;;;;;;;;14.90;99.90;;;;;;10490103;28;19930;-61
2021/05/19 06:38:49;;;;;;;;;;;14.70;99.90;;;;;;10488624;28;19928;-60
2021/05/19 06:43:50;;;;;;;;;;;14.60;99.90;;;;;;10488628;28;19951;-60
2021/05/19 06:48:51;;;;;;;;;;;14.30;99.90;;;;;;10487984;28;19920;-60
2021/05/19 06:53:53;;;;;;;;;;;14.00;99.90;;;;;;10492368;28;19971;-60
2021/05/19 06:58:55;;;;;;;;;;;13.70;99.90;;;;;;10492696;28;19924;-61
2021/05/19 07:03:56;;;;;;;;;;;13.60;99.90;;;;;;10492468;28;20399;-61
2021/05/19 07:08:58;;;;;;;;;;;13.70;99.90;;;;;;10493976;28;20006;-63
2021/05/19 07:14:01;;;;;;;;;;;13.80;99.90;;;;;;10493625;28;19924;-61
2021/05/19 07:19:03;;;;;;;;;;;13.90;99.90;;;;;;10492304;28;20382;-61
2021/05/19 07:24:11;;;;;;;;;;;14.10;99.90;;;;;;10492746;28;19924;-60
2021/05/19 07:29:13;;;;;;;;;;;14.60;99.90;;;;;;10492319;28;19971;-61
2021/05/19 07:34:14;;;;;;;;;;;15.10;99.90;;;;;;10493349;28;20015;-60
2021/05/19 07:39:17;;;;;;;;;;;15.40;99.90;;;;;;10492761;28;20015;-60
2021/05/19 07:44:19;;;;;;;;;;;15.10;99.90;;;;;;10491340;28;19924;-60
2021/05/19 07:49:20;;;;;;;;;;;14.70;99.90;;;;;;10491452;28;19920;-60
2021/05/19 07:54:26;;;;;;;;;;;14.40;99.90;;;;;;10491832;28;19920;-60
2021/05/19 07:59:29;;;;;;;;;;;14.20;99.90;;;;;;10491246;28;19920;-61
2021/05/19 08:04:32;;;;;;;;;;;14.00;99.90;;;;;;10490824;28;20022;-60
2021/05/19 08:09:34;;;;;;;;;;;14.20;99.90;;;;;;10491079;28;19928;-60
2021/05/19 08:14:35;;;;;;;;;;;13.70;99.90;;;;;;10497261;28;19920;-61
2021/05/19 08:19:36;;;;;;;;;;;12.90;99.90;;;;;;10499068;28;19920;-62
2021/05/19 08:24:38;;;;;;;;;;;12.30;99.90;;;;;;10498114;28;19921;-62
2021/05/19 08:29:40;;;;;;;;;;;11.70;99.90;;;;;;10498199;28;19931;-64
2021/05/19 08:34:42;;;;;;;;;;;11.10;99.90;;;;;;10496804;28;19970;-62
2021/05/19 08:39:46;;;;;;;;;;;10.70;99.90;;;;;;10497644;28;20582;-63
2021/05/19 08:44:47;;;;;;;;;;;10.60;99.90;;;;;;10498010;28;19950;-62
2021/05/19 08:49:48;;;;;;;;;;;10.60;99.90;;;;;;10498282;28;19927;-63
2021/05/19 08:54:53;;;;;;;;;;;10.60;99.90;;;;;;10497723;28;19979;-63
2021/05/19 08:59:55;;;;;;;;;;;10.90;99.90;;;;;;10497575;28;19930;-63
2021/05/19 09:04:57;;;;;;;;;;;11.10;99.90;;;;;;10496677;28;20046;-63
2021/05/19 09:10:13;;;;;;;;;;;11.50;99.90;;;;;;10496997;28;20056;-63
2021/05/19 09:15:14;;;;;;;;;;;11.80;99.90;;;;;;10496644;28;19920;-61
2021/05/19 09:20:16;;;;;;;;;;;12.20;99.90;;;;;;10496368;28;19944;-63
2021/05/19 09:25:19;;;;;;;;;;;12.60;99.90;;;;;;10495971;28;19927;-62
2021/05/19 09:30:34;;;;;;;;;;;13.30;99.90;;;;;;10496385;28;19924;-62
2021/05/19 09:35:36;;;;;;;;;;;13.80;99.90;;;;;;10496098;28;19920;-61
2021/05/19 09:40:38;;;;;;;;;;;14.10;99.90;;;;;;10495925;28;20333;-61
2021/05/19 09:45:41;;;;;;;;;;;14.00;99.90;;;;;;10494556;28;19920;-61
2021/05/19 09:50:45;;;;;;;;;;;13.70;99.90;;;;;;10495410;28;20417;-61
2021/05/19 09:56:01;;;;;;;;;;;13.40;99.90;;;;;;10494325;28;19920;-61
2021/05/19 10:01:03;;;;;;;;;;;13.00;99.90;;;;;;10493900;28;19928;-62
2021/05/19 10:06:09;;;;;;;;;;;12.90;99.90;;;;;;10492834;28;19925;-61
2021/05/19 10:11:11;;;;;;;;;;;12.80;99.90;;;;;;10493277;28;19970;-61
2021/05/19 10:16:15;;;;;;;;;;;12.40;99.90;;;;;;10494276;28;19927;-61
2021/05/19 10:21:16;;;;;;;;;;;12.10;99.90;;;;;;10493766;28;19975;-62
2021/05/19 10:26:18;;;;;;;;;;;12.20;99.90;;;;;;10494085;28;19926;-61
2021/05/19 10:31:24;;;;;;;;;;;12.40;99.90;;;;;;10493684;28;20356;-61
2021/05/19 10:36:33;;;;;;;;;;;12.80;99.90;;;;;;10492333;28;19927;-61
2021/05/19 10:41:35;;;;;;;;;;;13.10;99.90;;;;;;10491225;28;20273;-61
2021/05/19 10:46:51;;;;;;;;;;;13.70;99.90;;;;;;10491027;28;19954;-61
2021/05/19 10:52:12;;;;;;;;;;;14.20;99.90;;;;;;10493037;28;19927;-61
2021/05/19 10:57:32;;;;;;;;;;;15.20;99.90;;;;;;10493778;28;19932;-61
2021/05/19 11:02:47;;;;;;;;;;;16.30;99.90;;;;;;10493120;28;19931;-60
2021/05/19 11:13:18;;;;;;;;;;;16.10;99.90;;;;;;10492492;28;19927;-60
2021/05/19 11:18:21;;;;;;;;;;;16.10;99.90;;;;;;10452163;28;20016;-60
2021/05/19 11:23:22;;;;;;;;;;;16.60;99.90;;;;;;10456406;28;20447;-60
2021/05/19 11:28:25;;;;;;;;;;;17.40;99.90;;;;;;10443998;28;19933;-60
2021/05/19 11:33:26;;;;;;;;;;;18.50;99.90;;;;;;10449958;28;20062;-60
2021/05/19 11:38:31;;;;;;;;;;;19.80;99.00;;;;;;10453514;28;19925;-59
2021/05/19 11:43:36;;;;;;;;;;;21.10;96.90;;;;;;10455350;28;20327;-59
2021/05/19 11:48:38;;;;;;;;;;;21.70;92.70;;;;;;10447324;28;19947;-59
2021/05/19 11:53:52;;;;;;;;;;;21.80;92.00;;;;;;10439895;28;19932;-60
2021/05/19 11:58:54;;;;;;;;;;;22.20;90.20;;;;;;10442848;28;20304;-60
2021/05/19 12:03:55;;;;;;;;;;;22.00;88.10;;;;;;10443090;28;20016;-60
2021/05/19 12:08:56;;;;;;;;;;;22.00;84.60;;;;;;10448746;28;19931;-59
2021/05/19 12:14:00;;;;;;;;;;;21.40;80.50;;;;;;10484011;28;19929;-60
2021/05/19 12:19:07;;;;;;;;;;;20.70;76.70;;;;;;10484035;28;19925;-59
2021/05/19 12:24:09;;;;;;;;;;;20.10;75.00;;;;;;10458818;28;20314;-60
2021/05/19 12:29:29;;;;;;;;;;;20.30;76.40;;;;;;10456241;28;19925;-60
2021/05/19 12:34:31;;;;;;;;;;;21.00;71.70;;;;;;10456205;28;19935;-60
2021/05/19 12:39:32;;;;;;;;;;;20.90;71.70;;;;;;10455204;28;19947;-60
2021/05/19 12:44:34;;;;;;;;;;;20.30;71.50;;;;;;10455987;28;19932;-60
2021/05/19 12:49:36;;;;;;;;;;;20.20;73.50;;;;;;10457090;28;19932;-60
2021/05/19 12:54:37;;;;;;;;;;;20.60;72.30;;;;;;10455540;28;19925;-60
2021/05/19 12:59:56;;;;;;;;;;;20.90;72.10;;;;;;10454059;28;19935;-60
2021/05/19 13:04:58;;;;;;;;;;;21.20;68.80;;;;;;10454336;28;20050;-61
2021/05/19 13:10:09;;;;;;;;;;;21.60;69.50;;;;;;10453599;28;20343;-60
2021/05/19 13:15:16;;;;;;;;;;;22.20;67.30;;;;;;10454040;28;19925;-60
2021/05/19 13:20:20;;;;;;;;;;;22.40;60.30;;;;;;10454960;28;19925;-59
2021/05/19 13:25:22;;;;;;;;;;;22.00;57.30;;;;;;10453317;28;19925;-60
2021/05/19 13:30:26;;;;;;;;;;;21.60;57.80;;;;;;10453622;28;20389;-60
2021/05/19 13:40:54;;;;;;;;;;;21.20;58.40;;;;;;10452484;28;20019;-61
2021/05/19 13:45:58;;;;;;;;;;;21.00;58.90;;;;;;10453361;28;19929;-61
2021/05/19 13:50:59;;;;;;;;;;;21.20;59.30;;;;;;10452391;28;19965;-62
2021/05/19 13:56:03;;;;;;;;;;;21.30;57.60;;;;;;10451935;28;19925;-62
2021/05/19 14:01:05;;;;;;;;;;;20.50;59.30;;;;;;10452462;28;19933;-60
2021/05/19 14:06:06;;;;;;;;;;;20.10;61.60;;;;;;10452273;28;19933;-63
2021/05/19 14:11:10;;;;;;;;;;;20.00;63.10;;;;;;10451760;28;20396;-62
2021/05/19 14:16:29;;;;;;;;;;;19.90;63.70;;;;;;10450720;28;19962;-61
2021/05/19 14:27:04;;;;;;;;;;;20.80;61.80;;;;;;10450197;28;19920;-63
2021/05/19 14:32:07;;;;;;;;;;;20.20;61.70;;;;;;10450676;28;19934;-62
2021/05/19 15:03:53;;;;;;;;;;;19.10;67.50;;;;;;10567917;28;20325;-62
2021/05/19 15:08:54;;;;;;;;;;;18.30;69.60;;;;;;10571506;28;20329;-61
2021/05/19 15:13:56;;;;;;;;;;;18.10;74.60;;;;;;10569350;28;19932;-61
2021/05/19 15:18:57;;;;;;;;;;;18.00;74.20;;;;;;10572671;28;19943;-62
2021/05/19 15:23:58;;;;;;;;;;;18.00;75.80;;;;;;10568467;28;19928;-62
2021/05/19 15:29:00;;;;;;;;;;;17.90;77.00;;;;;;10566616;28;19932;-62
2021/05/19 15:34:03;;;;;;;;;;;17.90;76.10;;;;;;10570065;28;19931;-62
2021/05/19 15:39:04;;;;;;;;;;;17.90;77.70;;;;;;10567802;28;19932;-61
2021/05/19 15:44:06;;;;;;;;;;;17.70;78.90;;;;;;10574377;28;19946;-61
2021/05/19 15:49:08;;;;;;;;;;;17.60;80.10;;;;;;10569481;28;19924;-60
2021/05/19 15:54:09;;;;;;;;;;;17.50;80.80;;;;;;10536344;28;20315;-61
2021/05/19 15:59:12;;;;;;;;;;;17.50;82.20;;;;;;10534659;28;19928;-61
2021/05/19 16:04:15;;;;;;;;;;;17.50;82.60;;;;;;10536908;28;19939;-61
2021/05/19 16:09:16;;;;;;;;;;;17.30;82.40;;;;;;10546827;28;19938;-62
2021/05/19 16:14:18;;;;;;;;;;;17.00;84.40;;;;;;10547349;28;19924;-62
2021/05/19 16:19:19;;;;;;;;;;;17.00;83.60;;;;;;10541002;28;19932;-61
2021/05/19 16:24:20;;;;;;;;;;;16.80;81.80;;;;;;10535511;28;19924;-61
2021/05/19 16:35:08;;;;;;;;;;;16.30;87.20;;;;;;10372772;28;19930;-61
2021/05/19 16:40:10;;;;;;;;;;;16.10;88.90;;;;;;10407703;28;19932;-62
2021/05/19 16:45:11;;;;;;;;;;;15.80;90.30;;;;;;10543031;28;19931;-61
2021/05/19 16:50:14;;;;;;;;;;;15.70;90.50;;;;;;10545382;28;19932;-61
2021/05/19 16:55:15;;;;;;;;;;;15.40;90.40;;;;;;10546190;28;19928;-61
2021/05/19 17:00:16;;;;;;;;;;;15.30;91.40;;;;;;10538768;28;20587;-61
2021/05/19 17:05:18;;;;;;;;;;;15.10;89.70;;;;;;10543110;28;19932;-61
2021/05/19 17:10:19;;;;;;;;;;;14.80;90.90;;;;;;10541805;28;19924;-63
2021/05/19 17:15:20;;;;;;;;;;;14.50;92.50;;;;;;10538324;28;19923;-63
2021/05/19 17:20:23;;;;;;;;;;;14.30;93.30;;;;;;10545889;28;20030;-63
2021/05/19 17:25:26;;;;;;;;;;;14.20;94.00;;;;;;10530264;28;19930;-63
2021/05/19 17:30:29;;;;;;;;;;;14.30;93.80;;;;;;10537490;28;19924;-62
2021/05/19 17:35:31;;;;;;;;;;;14.10;93.70;;;;;;10536971;28;19936;-63
2021/05/19 17:40:32;;;;;;;;;;;14.00;94.00;;;;;;10532048;28;19923;-63
2021/05/19 17:45:34;;;;;;;;;;;13.80;94.70;;;;;;10550236;28;20521;-63
2021/05/19 17:50:36;;;;;;;;;;;13.70;95.40;;;;;;10538515;28;20412;-63
2021/05/19 17:55:38;;;;;;;;;;;13.60;96.20;;;;;;10553172;28;19928;-62
2021/05/19 18:00:39;;;;;;;;;;;13.50;96.50;;;;;;10574062;28;20006;-62
2021/05/19 18:05:41;;;;;;;;;;;13.30;96.90;;;;;;10553976;28;19924;-61
2021/05/19 18:10:46;;;;;;;;;;;13.00;98.20;;;;;;10548702;28;20015;-61
2021/05/19 18:15:47;;;;;;;;;;;12.80;99.30;;;;;;10568810;28;19927;-62
2021/05/19 18:20:51;;;;;;;;;;;14.20;99.90;;;;;;10571431;28;20403;-61
2021/05/19 18:25:52;;;;;;;;;;;12.50;99.90;;;;;;10563257;28;19923;-62
2021/05/19 18:30:59;;;;;;;;;;;13.60;99.90;;;;;;10564123;28;19957;-62
2021/05/19 18:36:01;;;;;;;;;;;12.30;99.90;;;;;;10570718;28;19934;-63
2021/05/19 18:41:02;;;;;;;;;;;12.20;99.90;;;;;;10576208;28;19931;-63
2021/05/19 18:46:05;;;;;;;;;;;12.10;99.90;;;;;;10576868;28;19928;-62
2021/05/19 18:51:07;;;;;;;;;;;11.80;99.90;;;;;;10577152;28;19934;-61
2021/05/19 18:56:08;;;;;;;;;;;11.70;99.90;;;;;;10576713;28;19934;-61
2021/05/19 19:01:09;;;;;;;;;;;11.60;99.90;;;;;;10576719;28;19931;-61
2021/05/19 19:06:11;;;;;;;;;;;11.50;99.90;;;;;;10576776;28;19923;-63
2021/05/19 19:11:13;;;;;;;;;;;11.30;99.90;;;;;;10576561;28;19923;-61
2021/05/19 19:16:14;;;;;;;;;;;11.20;99.90;;;;;;10575977;28;20290;-62
2021/05/19 19:21:16;;;;;;;;;;;11.00;99.90;;;;;;10575656;28;19924;-61
2021/05/19 19:26:17;;;;;;;;;;;10.90;99.90;;;;;;10578876;28;19993;-61
2021/05/19 19:31:18;;;;;;;;;;;10.70;99.90;;;;;;10583691;28;19950;-62
2021/05/19 19:36:20;;;;;;;;;;;10.50;99.90;;;;;;10584032;28;19934;-63
2021/05/19 19:41:22;;;;;;;;;;;10.40;99.90;;;;;;10585815;28;19928;-62
2021/05/19 19:46:23;;;;;;;;;;;10.30;99.90;;;;;;10583888;28;19939;-62
2021/05/19 19:51:27;;;;;;;;;;;10.20;99.90;;;;;;10582739;28;19927;-61
2021/05/19 19:56:28;;;;;;;;;;;10.10;99.90;;;;;;10586112;28;20011;-61
2021/05/19 20:01:34;;;;;;;;;;;10.00;99.90;;;;;;10585070;28;19974;-60
2021/05/19 20:06:37;;;;;;;;;;;9.90;99.90;;;;;;10584506;28;20272;-61
2021/05/19 20:11:41;;;;;;;;;;;9.80;99.90;;;;;;10584416;28;19934;-60
2021/05/19 20:16:42;;;;;;;;;;;9.80;99.90;;;;;;10584126;28;20023;-61
2021/05/19 20:21:46;;;;;;;;;;;9.70;99.90;;;;;;10583275;28;20000;-61
2021/05/19 20:26:47;;;;;;;;;;;9.60;99.90;;;;;;10583772;28;20011;-60
2021/05/19 20:31:48;;;;;;;;;;;9.60;99.90;;;;;;10583438;28;19928;-60
2021/05/19 20:36:52;;;;;;;;;;;9.50;99.90;;;;;;10583290;28;20291;-60
2021/05/19 20:41:53;;;;;;;;;;;9.30;99.90;;;;;;10582553;28;20291;-62
2021/05/19 20:46:56;;;;;;;;;;;9.20;99.90;;;;;;10583397;28;20015;-61
2021/05/19 20:51:58;;;;;;;;;;;9.10;99.90;;;;;;10582388;28;19927;-61
2021/05/19 20:57:00;;;;;;;;;;;9.00;99.90;;;;;;10582460;28;19931;-61
2021/05/19 21:02:01;;;;;;;;;;;8.90;99.90;;;;;;10582029;28;19927;-61
2021/05/19 21:07:03;;;;;;;;;;;8.80;99.90;;;;;;10581595;28;19950;-61
2021/05/19 21:12:04;;;;;;;;;;;8.80;99.90;;;;;;10581762;28;19934;-61
2021/05/19 21:17:05;;;;;;;;;;;8.70;99.90;;;;;;10582101;28;19924;-60
2021/05/19 21:22:08;;;;;;;;;;;8.80;99.90;;;;;;10581722;28;19924;-60
2021/05/19 21:27:09;;;;;;;;;;;8.80;99.90;;;;;;10578686;28;19923;-61
2021/05/19 21:32:10;;;;;;;;;;;10.70;99.90;;;;;;10576929;28;19923;-61
2021/05/19 21:37:12;;;;;;;;;;;8.80;99.90;;;;;;10577822;28;19930;-61
2021/05/19 21:42:14;;;;;;;;;;;8.70;99.90;;;;;;10577308;28;19931;-61
2021/05/19 21:47:15;;;;;;;;;;;8.60;99.90;;;;;;10576248;28;20022;-60
2021/05/19 21:52:17;;;;;;;;;;;8.50;99.90;;;;;;10577298;28;19930;-61
2021/05/19 21:57:18;;;;;;;;;;;8.40;99.90;;;;;;10577540;28;19934;-61
2021/05/19 22:02:19;;;;;;;;;;;8.40;99.90;;;;;;10579634;28;19924;-61
2021/05/19 22:07:21;;;;;;;;;;;8.30;99.90;;;;;;10579549;28;20011;-58
2021/05/19 22:12:22;;;;;;;;;;;8.30;99.90;;;;;;10578799;28;19924;-60
2021/05/19 22:17:27;;;;;;;;;;;8.20;99.90;;;;;;10579377;28;20160;-61
2021/05/19 22:22:46;;;;;;;;;;;8.20;99.90;;;;;;10579241;28;20010;-62
2021/05/19 22:27:47;;;;;;;;;;;8.20;99.90;;;;;;10579531;28;19951;-61
2021/05/19 22:32:48;;;;;;;;;;;6.80;99.90;;;;;;10578142;28;20019;-61
2021/05/19 22:37:50;;;;;;;;;;;8.20;99.90;;;;;;10577420;28;20060;-61
2021/05/19 22:42:51;;;;;;;;;;;8.20;99.90;;;;;;10576757;28;20283;-61
2021/05/19 22:47:52;;;;;;;;;;;8.30;99.90;;;;;;10577271;28;19928;-61
2021/05/19 22:52:54;;;;;;;;;;;8.90;99.90;;;;;;10577082;28;19932;-62
2021/05/19 22:57:55;;;;;;;;;;;8.30;99.90;;;;;;10577782;28;19934;-61
2021/05/19 23:02:56;;;;;;;;;;;8.40;99.90;;;;;;10582322;28;19934;-61
2021/05/19 23:07:58;;;;;;;;;;;8.40;99.90;;;;;;10584967;28;20035;-61
2021/05/19 23:13:00;;;;;;;;;;;8.40;99.90;;;;;;10585245;28;20019;-61
2021/05/19 23:18:01;;;;;;;;;;;8.30;99.90;;;;;;10585093;28;20018;-60
2021/05/19 23:23:03;;;;;;;;;;;8.90;99.90;;;;;;10583380;28;19924;-61
2021/05/19 23:28:04;;;;;;;;;;;8.30;99.90;;;;;;10583050;28;19938;-62
2021/05/19 23:33:06;;;;;;;;;;;8.20;99.90;;;;;;10582523;28;19976;-61
2021/05/19 23:38:08;;;;;;;;;;;8.20;99.90;;;;;;10579762;28;19967;-60
2021/05/19 23:43:09;;;;;;;;;;;8.20;99.90;;;;;;10579025;28;19924;-61
2021/05/19 23:48:10;;;;;;;;;;;8.20;99.90;;;;;;10580291;28;19923;-60
2021/05/19 23:53:12;;;;;;;;;;;8.30;99.90;;;;;;10581812;28;19928;-61
2021/05/19 23:58:13;;;;;;;;;;;8.40;99.90;;;;;;10581967;28;19992;-61
